Terminal Aerodrome Forecast
Issued by NWS Cleveland, OH

Home | Current Version | Previous Version | Text Only | Print | Product List | Glossary Off
Versions: 1 2 3 4 5 6 7 8 9 10 11 12 13 14 15 16 17 18 19

000
FTUS41 KCLE 212021 AAA
TAFYNG
TAF AMD
KYNG 212021Z 2120/2218 20006KT P6SM VCTS BKN060CB
      TEMPO 2120/2121 18015G25KT 5SM -TSRA BKN045CB
     FM212100 23005KT P6SM VCTS FEW050CB SCT200
     FM220200 21004KT P6SM BKN200
     FM221200 20007KT P6SM SCT040 BKN120=

USA.gov is the U.S. government's official web portal to all federal, state and local government web resources and services.